Time;durP1;ratioP1;P1;durP2;ratioP2;P2;SDS_P1;SDS_P2;PMS_P1;PMS_P2;Temp;Humidity;BMP_temperature;BMP_pressure;BME280_temperature;BME280_humidity;BME280_pressure;Samples;Min_cycle;Max_cycle;Signal;HPM_P1;HPM_P2
2022/03/23 00:00:15;;;;;;;19.00;7.40;;;;;6.30;98927.20;;;;111048;1248;41240;-67
2022/03/23 00:03:06;;;;;;;25.10;8.70;;;;;6.30;98925.80;;;;110976;1250;41154;-67
2022/03/23 00:05:38;;;;;;;18.50;8.70;;;;;6.30;98923.60;;;;111094;1249;41251;-66
2022/03/23 00:08:11;;;;;;;18.30;7.70;;;;;6.30;98925.00;;;;110966;1250;41530;-68
2022/03/23 00:10:41;;;;;;;15.40;7.30;;;;;6.30;98923.20;;;;111084;1249;42129;-67
2022/03/23 00:13:10;;;;;;;14.50;7.10;;;;;6.30;98921.40;;;;111092;1248;41148;-68
2022/03/23 00:15:40;;;;;;;16.10;7.30;;;;;6.20;98924.60;;;;111163;1248;41134;-67
2022/03/23 00:18:10;;;;;;;22.00;9.20;;;;;6.10;98923.00;;;;111008;1248;41754;-67
2022/03/23 00:20:41;;;;;;;23.20;10.00;;;;;6.00;98921.20;;;;111074;1247;41909;-66
2022/03/23 00:23:11;;;;;;;21.20;9.00;;;;;6.00;98922.00;;;;111063;1248;41130;-67
2022/03/23 00:25:41;;;;;;;15.90;7.10;;;;;5.90;98922.20;;;;110991;1248;41261;-67
2022/03/23 00:28:10;;;;;;;15.60;7.50;;;;;5.80;98922.40;;;;111094;1248;41172;-67
2022/03/23 00:30:42;;;;;;;18.10;7.70;;;;;5.80;98926.00;;;;111101;1248;41935;-67
2022/03/23 00:33:31;;;;;;;18.80;7.60;;;;;5.70;98920.40;;;;111094;1247;41612;-66
2022/03/23 00:36:02;;;;;;;16.90;7.10;;;;;5.70;98924.80;;;;110851;1248;41770;-68
2022/03/23 00:38:32;;;;;;;19.80;9.50;;;;;5.60;98920.00;;;;111051;1248;41154;-67
2022/03/23 00:41:03;;;;;;;18.80;8.90;;;;;5.60;98920.80;;;;111332;1245;41314;-67
2022/03/23 00:43:33;;;;;;;23.90;8.20;;;;;5.52;98918.40;;;;111044;1248;41136;-68
2022/03/23 00:46:04;;;;;;;21.80;9.20;;;;;5.50;98921.60;;;;110810;1249;41158;-67
2022/03/23 00:48:33;;;;;;;18.00;8.40;;;;;5.40;98915.40;;;;110849;1247;41156;-67
2022/03/23 00:51:03;;;;;;;21.20;9.10;;;;;5.40;98911.20;;;;111154;1247;41328;-68
2022/03/23 00:53:34;;;;;;;19.00;8.50;;;;;5.30;98913.80;;;;111113;1248;41595;-67
2022/03/23 00:56:04;;;;;;;20.20;7.80;;;;;5.30;98912.40;;;;111014;1247;41183;-66
2022/03/23 00:58:36;;;;;;;20.60;8.20;;;;;5.20;98909.60;;;;111016;1246;41171;-67
2022/03/23 01:01:08;;;;;;;17.00;7.30;;;;;5.20;98912.60;;;;111053;1248;41144;-67
2022/03/23 01:03:38;;;;;;;18.00;6.80;;;;;5.10;98909.00;;;;111096;1247;41612;-67
2022/03/23 01:06:09;;;;;;;20.20;7.90;;;;;5.10;98904.20;;;;111041;1247;41718;-67
2022/03/23 01:08:41;;;;;;;19.30;8.00;;;;;5.10;98900.60;;;;111096;1247;41253;-66
2022/03/23 01:11:12;;;;;;;20.30;7.90;;;;;5.04;98897.80;;;;111022;1247;41953;-67
2022/03/23 01:13:43;;;;;;;19.40;8.50;;;;;5.00;98902.40;;;;111037;1247;41252;-67
2022/03/23 01:16:14;;;;;;;17.90;8.40;;;;;5.00;98901.20;;;;110884;1249;41599;-67
2022/03/23 01:18:44;;;;;;;20.10;8.50;;;;;4.90;98897.60;;;;111145;1247;41131;-68
2022/03/23 01:21:14;;;;;;;19.90;8.10;;;;;4.90;98899.60;;;;111038;1247;41344;-65
2022/03/23 01:23:45;;;;;;;22.40;8.30;;;;;4.90;98896.40;;;;110862;1249;41501;-66
2022/03/23 01:26:16;;;;;;;19.80;7.80;;;;;4.80;98898.80;;;;111060;1248;42495;-66
2022/03/23 01:28:46;;;;;;;19.30;7.70;;;;;4.80;98892.20;;;;110982;1248;41194;-66
2022/03/23 01:31:18;;;;;;;16.70;8.40;;;;;4.80;98893.20;;;;111067;1248;41192;-67
2022/03/23 01:33:48;;;;;;;17.10;7.80;;;;;4.70;98896.80;;;;111075;1247;41855;-67
2022/03/23 01:36:18;;;;;;;19.10;8.00;;;;;4.70;98896.20;;;;111020;1248;41317;-67
2022/03/23 01:38:48;;;;;;;24.10;9.30;;;;;4.70;98895.80;;;;111075;1248;41733;-67
2022/03/23 01:41:19;;;;;;;17.80;8.60;;;;;4.70;98898.20;;;;111036;1249;41177;-67
2022/03/23 01:43:50;;;;;;;19.50;9.00;;;;;4.60;98894.00;;;;111076;1247;42014;-67
2022/03/23 01:46:20;;;;;;;21.80;9.70;;;;;4.60;98896.60;;;;111078;1247;41275;-67
2022/03/23 01:48:51;;;;;;;20.10;8.70;;;;;4.60;98896.60;;;;111066;1247;41827;-66
2022/03/23 01:51:23;;;;;;;;;;;;;4.50;98897.20;;;;111118;1247;42080;-67
2022/03/23 01:53:54;;;;;;;18.10;8.40;;;;;4.40;98905.00;;;;111121;1248;41304;-66
2022/03/23 01:56:26;;;;;;;15.50;7.60;;;;;4.40;98902.40;;;;111083;1249;41347;-67
2022/03/23 01:58:55;;;;;;;21.10;9.80;;;;;4.30;98901.00;;;;111128;1248;41785;-67
2022/03/23 02:01:26;;;;;;;18.10;8.20;;;;;4.20;98904.60;;;;111097;1248;42507;-67
2022/03/23 02:03:56;;;;;;;20.60;8.70;;;;;4.10;98901.40;;;;110726;1250;41134;-66
2022/03/23 02:06:27;;;;;;;23.40;9.30;;;;;3.90;98902.40;;;;110783;1248;41270;-67
2022/03/23 02:08:59;;;;;;;21.80;8.80;;;;;3.70;98898.40;;;;111080;1247;41134;-67
2022/03/23 02:11:32;;;;;;;19.70;8.20;;;;;3.40;98905.40;;;;111052;1247;41338;-67
2022/03/23 02:14:08;;;;;;;18.10;8.90;;;;;3.30;98907.00;;;;111120;1247;41572;-66
2022/03/23 02:16:46;;;;;;;16.00;7.40;;;;;3.10;98907.60;;;;111052;1248;41311;-66
2022/03/23 02:19:17;;;;;;;14.20;6.30;;;;;3.00;98909.40;;;;111049;1247;41173;-66
2022/03/23 02:21:47;;;;;;;;;;;;;2.94;98907.80;;;;111123;1247;41317;-67
2022/03/23 02:24:22;;;;;;;15.90;7.00;;;;;2.90;98906.00;;;;111036;1246;41258;-66
2022/03/23 02:26:52;;;;;;;21.10;9.20;;;;;2.90;98900.20;;;;111101;1247;41178;-66
2022/03/23 02:29:26;;;;;;;24.20;9.10;;;;;2.90;98902.40;;;;111030;1248;41978;-67
2022/03/23 02:31:57;;;;;;;29.60;9.70;;;;;2.88;98903.00;;;;110978;1247;41147;-66
2022/03/23 02:34:28;;;;;;;20.20;9.10;;;;;2.80;98903.60;;;;111082;1247;41695;-67
2022/03/23 02:36:59;;;;;;;16.50;7.40;;;;;2.70;98901.00;;;;111031;1247;41335;-66
2022/03/23 02:39:29;;;;;;;24.40;7.70;;;;;2.66;98902.60;;;;111036;1247;41261;-66
2022/03/23 02:42:01;;;;;;;19.90;7.60;;;;;2.60;98906.40;;;;111063;1247;41280;-66
2022/03/23 02:44:32;;;;;;;;;;;;;2.50;98910.80;;;;111289;1246;41250;-68
2022/03/23 02:47:04;;;;;;;15.50;7.50;;;;;2.40;98909.60;;;;111132;1246;41128;-67
2022/03/23 02:49:35;;;;;;;16.80;7.50;;;;;2.30;98907.80;;;;111071;1248;41914;-66
2022/03/23 02:52:06;;;;;;;16.20;7.30;;;;;2.20;98904.20;;;;111082;1245;41277;-67
2022/03/23 03:03:27;;;;;;;17.80;8.60;;;;;1.96;98918.20;;;;110983;1247;41261;-66
2022/03/23 03:05:58;;;;;;;21.60;8.10;;;;;1.90;98912.40;;;;111061;1247;41196;-66
2022/03/23 03:08:47;;;;;;;23.30;9.60;;;;;1.86;98920.00;;;;111094;1247;41597;-66
2022/03/23 03:11:19;;;;;;;16.80;8.50;;;;;1.88;98924.40;;;;111090;1247;42389;-66
2022/03/23 03:13:50;;;;;;;16.80;7.80;;;;;1.82;98918.20;;;;110990;1247;42246;-66
2022/03/23 03:16:20;;;;;;;19.80;8.30;;;;;1.82;98924.20;;;;111059;1250;42476;-67
2022/03/23 03:19:04;;;;;;;19.00;7.80;;;;;1.90;98919.40;;;;110901;1250;41911;-66
2022/03/23 03:21:35;;;;;;;18.80;7.40;;;;;1.98;98919.40;;;;111046;1247;41624;-67
2022/03/23 03:24:07;;;;;;;16.70;8.20;;;;;2.00;98928.20;;;;111020;1248;41147;-66
2022/03/23 03:26:37;;;;;;;17.90;7.60;;;;;2.10;98917.60;;;;110693;1247;41597;-66
2022/03/23 03:29:08;;;;;;;20.00;7.60;;;;;2.14;98912.60;;;;111039;1248;41240;-67
2022/03/23 03:31:37;;;;;;;15.20;7.60;;;;;2.20;98914.20;;;;111077;1248;41587;-66
2022/03/23 03:34:08;;;;;;;15.40;6.70;;;;;2.20;98915.40;;;;111070;1247;41611;-67
2022/03/23 03:36:38;;;;;;;17.80;7.90;;;;;2.20;98916.80;;;;111049;1249;41259;-66
2022/03/23 03:39:08;;;;;;;15.20;7.60;;;;;2.20;98921.60;;;;111031;1248;41153;-67
2022/03/23 03:41:39;;;;;;;17.40;7.60;;;;;2.20;98923.20;;;;110880;1248;41271;-67
2022/03/23 03:44:11;;;;;;;18.60;7.40;;;;;2.20;98921.00;;;;111046;1247;41287;-67
2022/03/23 03:46:41;;;;;;;16.80;6.70;;;;;2.20;98920.20;;;;111076;1248;41197;-66
2022/03/23 03:49:11;;;;;;;20.90;8.90;;;;;2.20;98921.60;;;;111077;1248;42791;-66
2022/03/23 03:51:42;;;;;;;25.20;9.70;;;;;2.16;98915.40;;;;111120;1247;42394;-66
2022/03/23 03:55:05;;;;;;;16.10;7.60;;;;;2.10;98921.40;;;;111093;1247;41278;-67
2022/03/23 03:57:36;;;;;;;18.90;7.70;;;;;2.00;98923.40;;;;111051;1247;41756;-66
2022/03/23 04:00:07;;;;;;;16.90;7.40;;;;;1.90;98919.80;;;;111083;1247;42053;-66
2022/03/23 04:02:44;;;;;;;17.20;7.00;;;;;1.88;98920.00;;;;111017;1248;41705;-66
2022/03/23 04:05:14;;;;;;;17.60;6.40;;;;;1.78;98923.20;;;;110901;1247;41230;-66
2022/03/23 04:07:44;;;;;;;14.50;6.30;;;;;1.70;98925.40;;;;111038;1247;41158;-65
2022/03/23 04:10:15;;;;;;;15.20;7.00;;;;;1.60;98928.20;;;;111046;1248;41181;-67
2022/03/23 04:12:44;;;;;;;15.00;7.00;;;;;1.50;98928.80;;;;111070;1247;41307;-66
2022/03/23 04:15:14;;;;;;;13.70;7.00;;;;;1.40;98937.40;;;;110898;1249;41131;-66
2022/03/23 04:17:45;;;;;;;18.10;7.80;;;;;1.36;98931.20;;;;111124;1247;41139;-67
2022/03/23 04:20:15;;;;;;;19.90;8.40;;;;;1.30;98928.00;;;;111121;1247;41763;-65
2022/03/23 04:22:44;;;;;;;18.90;8.20;;;;;1.20;98933.40;;;;110871;1249;41706;-67
2022/03/23 04:25:15;;;;;;;17.60;7.50;;;;;1.10;98930.80;;;;111074;1247;41191;-66
2022/03/23 04:27:49;;;;;;;17.20;7.50;;;;;1.10;98933.20;;;;111215;1247;41153;-67
2022/03/23 04:30:21;;;;;;;14.20;6.60;;;;;1.00;98934.00;;;;111029;1247;42300;-66
2022/03/23 04:32:51;;;;;;;18.20;7.50;;;;;1.00;98937.40;;;;111125;1247;41271;-66
2022/03/23 04:35:24;;;;;;;21.90;8.40;;;;;0.96;98939.60;;;;111145;1247;41519;-67
2022/03/23 04:37:54;;;;;;;14.50;6.70;;;;;0.98;98939.00;;;;110946;1250;42019;-67
2022/03/23 04:40:23;;;;;;;16.10;7.30;;;;;0.90;98945.80;;;;110909;1250;42048;-68
2022/03/23 04:42:53;;;;;;;17.70;7.00;;;;;0.90;98947.60;;;;110988;1248;41298;-67
2022/03/23 04:45:29;;;;;;;18.10;7.70;;;;;0.90;98948.40;;;;110842;1247;41246;-64
2022/03/23 04:48:03;;;;;;;18.00;8.10;;;;;1.00;98941.60;;;;110710;1250;41574;-67
2022/03/23 04:50:32;;;;;;;22.10;8.20;;;;;1.04;98944.00;;;;110868;1247;41720;-68
2022/03/23 04:53:03;;;;;;;19.00;8.40;;;;;1.10;98942.20;;;;110898;1249;41631;-66
2022/03/23 04:55:32;;;;;;;18.40;7.30;;;;;1.20;98944.60;;;;110953;1247;41248;-67
2022/03/23 04:58:01;;;;;;;14.60;6.80;;;;;1.28;98943.00;;;;110811;1249;41156;-67
2022/03/23 05:00:32;;;;;;;17.00;6.90;;;;;1.30;98944.40;;;;111022;1247;41512;-66
2022/03/23 05:03:02;;;;;;;14.30;6.10;;;;;1.40;98948.20;;;;110966;1247;42244;-67
2022/03/23 05:05:31;;;;;;;17.60;6.80;;;;;1.50;98944.00;;;;110870;1250;41212;-66
2022/03/23 05:08:01;;;;;;;18.50;7.20;;;;;1.60;98952.60;;;;110754;1249;41776;-65
2022/03/23 05:10:31;;;;;;;13.10;6.80;;;;;1.70;98941.60;;;;110956;1248;41226;-67
2022/03/23 05:13:01;;;;;;;18.10;7.80;;;;;1.80;98944.40;;;;111044;1248;41144;-66
2022/03/23 05:15:30;;;;;;;18.60;7.00;;;;;1.88;98949.80;;;;110874;1248;41158;-64
2022/03/23 05:18:00;;;;;;;14.20;6.90;;;;;2.00;98942.80;;;;110832;1247;41957;-68
2022/03/23 05:20:29;;;;;;;25.70;11.60;;;;;2.10;98942.60;;;;110849;1248;41273;-66
2022/03/23 05:23:00;;;;;;;;;;;;;2.26;98943.20;;;;111121;1247;41190;-65
2022/03/23 05:25:30;;;;;;;31.00;15.00;;;;;2.40;98946.20;;;;110831;1248;41543;-64
2022/03/23 05:27:59;;;;;;;25.90;13.70;;;;;2.50;98943.00;;;;110784;1251;41155;-67
2022/03/23 05:30:28;;;;;;;30.90;14.60;;;;;2.60;98946.20;;;;110865;1250;41138;-65
2022/03/23 05:32:58;;;;;;;33.10;15.70;;;;;2.80;98946.00;;;;111059;1247;41140;-66
2022/03/23 05:35:28;;;;;;;37.20;15.10;;;;;2.90;98943.60;;;;110769;1250;41686;-67
2022/03/23 05:37:57;;;;;;;31.10;15.60;;;;;3.10;98940.40;;;;111137;1247;41774;-66
2022/03/23 05:40:27;;;;;;;30.40;12.60;;;;;3.28;98942.20;;;;111099;1247;41250;-67
2022/03/23 05:42:56;;;;;;;24.60;11.00;;;;;3.40;98940.40;;;;111001;1248;41593;-67
2022/03/23 05:45:25;;;;;;;23.30;10.30;;;;;3.60;98938.40;;;;111007;1247;41599;-67
2022/03/23 05:47:56;;;;;;;28.20;11.80;;;;;3.70;98934.60;;;;111152;1247;41139;-67
2022/03/23 05:50:26;;;;;;;26.90;12.00;;;;;3.72;98937.00;;;;111060;1247;41317;-67
2022/03/23 05:52:55;;;;;;;27.60;12.30;;;;;3.80;98931.80;;;;111001;1248;41247;-66
2022/03/23 05:55:24;;;;;;;25.90;11.60;;;;;3.90;98939.60;;;;111034;1247;41362;-65
2022/03/23 05:57:55;;;;;;;26.80;14.70;;;;;4.10;98931.60;;;;111092;1246;41153;-66
2022/03/23 06:00:24;;;;;;;26.60;13.90;;;;;4.30;98928.60;;;;111079;1247;41274;-66
2022/03/23 06:02:58;;;;;;;32.70;15.50;;;;;4.50;98928.80;;;;111005;1247;41147;-66
2022/03/23 06:05:27;;;;;;;33.10;14.30;;;;;4.70;98924.60;;;;110729;1248;41165;-66
2022/03/23 06:07:57;;;;;;;32.70;15.10;;;;;4.90;98922.20;;;;111112;1247;41132;-66
2022/03/23 06:10:26;;;;;;;38.50;16.10;;;;;5.14;98927.80;;;;111045;1247;41615;-66
2022/03/23 06:12:56;;;;;;;37.70;18.00;;;;;5.30;98925.80;;;;110898;1246;41459;-67
2022/03/23 06:15:26;;;;;;;40.10;19.10;;;;;5.40;98918.80;;;;111185;1247;41159;-67
2022/03/23 06:17:55;;;;;;;41.80;18.80;;;;;5.60;98921.00;;;;111114;1247;41264;-67
2022/03/23 06:20:29;;;;;;;35.60;15.50;;;;;5.68;98926.00;;;;111037;1248;41783;-66
2022/03/23 06:22:59;;;;;;;33.60;16.20;;;;;5.80;98921.00;;;;110966;1248;41362;-66
2022/03/23 06:25:28;;;;;;;31.50;15.00;;;;;5.90;98923.80;;;;111123;1246;41606;-67
2022/03/23 06:27:57;;;;;;;28.70;13.20;;;;;6.00;98919.20;;;;111124;1246;41253;-67
2022/03/23 06:30:27;;;;;;;26.60;10.70;;;;;6.10;98919.80;;;;111135;1247;41121;-68
2022/03/23 06:32:56;;;;;;;21.40;9.70;;;;;6.24;98921.60;;;;111008;1247;41190;-66
2022/03/23 06:35:26;;;;;;;22.20;10.10;;;;;6.40;98919.60;;;;111050;1247;41644;-67
2022/03/23 06:37:56;;;;;;;20.50;9.80;;;;;6.60;98915.40;;;;110811;1248;41385;-67
2022/03/23 06:40:25;;;;;;;22.50;9.70;;;;;6.70;98914.60;;;;111037;1247;41198;-66
2022/03/23 06:42:54;;;;;;;24.50;10.20;;;;;6.82;98913.80;;;;111055;1248;41630;-66
2022/03/23 06:45:24;;;;;;;24.30;9.80;;;;;7.00;98907.40;;;;111077;1247;41165;-66
2022/03/23 06:47:53;;;;;;;24.10;11.40;;;;;7.10;98908.40;;;;111077;1248;41634;-66
2022/03/23 06:50:24;;;;;;;23.60;9.70;;;;;7.20;98907.80;;;;111058;1247;41520;-68
2022/03/23 06:52:53;;;;;;;17.10;8.30;;;;;7.40;98911.20;;;;111103;1247;41593;-63
2022/03/23 06:55:23;;;;;;;20.70;9.60;;;;;7.54;98902.00;;;;111122;1247;42180;-63
2022/03/23 06:57:53;;;;;;;22.00;10.20;;;;;7.76;98904.20;;;;110863;1248;41203;-66
2022/03/23 07:00:22;;;;;;;18.80;9.50;;;;;8.00;98900.80;;;;111117;1247;41151;-69
2022/03/23 07:02:51;;;;;;;21.30;9.40;;;;;8.24;98898.80;;;;111041;1247;41038;-71
2022/03/23 07:05:20;;;;;;;17.80;8.50;;;;;8.46;98898.40;;;;111078;1247;41509;-73
2022/03/23 07:10:38;;;;;;;15.30;6.50;;;;;8.90;98897.40;;;;111078;1247;41608;-67
2022/03/23 07:13:08;;;;;;;15.50;7.00;;;;;9.10;98898.80;;;;110991;1246;41475;-66
2022/03/23 07:15:37;;;;;;;15.50;7.90;;;;;9.30;98895.00;;;;110956;1247;41179;-68
2022/03/23 07:18:10;;;;;;;14.30;6.50;;;;;9.50;98888.00;;;;110887;1249;42378;-70
2022/03/23 07:20:39;;;;;;;17.30;8.10;;;;;9.64;98885.20;;;;111148;1247;41136;-65
2022/03/23 07:23:11;;;;;;;15.80;7.10;;;;;9.90;98888.00;;;;110837;1247;42359;-66
2022/03/23 07:25:40;;;;;;;19.20;8.00;;;;;10.10;98887.00;;;;111163;1247;41154;-69
2022/03/23 07:28:10;;;;;;;18.80;7.50;;;;;10.30;98883.20;;;;111043;1247;41154;-68
2022/03/23 07:30:40;;;;;;;15.90;7.80;;;;;10.56;98884.80;;;;111086;1247;41150;-64
2022/03/23 07:33:10;;;;;;;17.50;7.10;;;;;10.70;98880.00;;;;110592;1247;687899;-67
2022/03/23 07:35:40;;;;;;;17.60;7.70;;;;;10.90;98882.40;;;;110826;1247;41152;-65
2022/03/23 07:38:10;;;;;;;18.00;8.00;;;;;11.20;98875.80;;;;111141;1247;41529;-64
2022/03/23 07:40:39;;;;;;;17.80;8.00;;;;;11.40;98872.60;;;;111100;1246;42762;-65
2022/03/23 07:43:09;;;;;;;18.10;8.20;;;;;11.72;98873.80;;;;111074;1247;41135;-69
2022/03/23 07:45:38;;;;;;;16.20;7.10;;;;;11.94;98869.20;;;;110906;1247;41161;-71
2022/03/23 07:48:08;;;;;;;18.40;7.50;;;;;12.20;98868.20;;;;111017;1247;42222;-70
2022/03/23 07:50:38;;;;;;;22.20;9.40;;;;;12.38;98869.40;;;;111080;1247;42277;-70
2022/03/23 07:53:07;;;;;;;21.80;9.60;;;;;12.50;98862.60;;;;110893;1248;41602;-70
2022/03/23 07:55:37;;;;;;;17.80;8.60;;;;;12.50;98860.40;;;;111027;1247;42370;-66
2022/03/23 07:58:07;;;;;;;18.80;9.10;;;;;12.66;98857.40;;;;111026;1247;41175;-64
2022/03/23 08:00:38;;;;;;;20.10;8.90;;;;;12.80;98855.40;;;;111093;1246;42720;-68
2022/03/23 08:03:07;;;;;;;21.30;9.50;;;;;13.02;98852.60;;;;111112;1247;42148;-68
2022/03/23 08:05:42;;;;;;;23.50;9.10;;;;;13.20;98852.00;;;;111022;1247;42100;-65
2022/03/23 08:08:11;;;;;;;26.70;9.20;;;;;13.40;98848.60;;;;111081;1247;41151;-66
2022/03/23 08:10:42;;;;;;;16.70;8.70;;;;;13.52;98846.40;;;;111102;1247;41150;-65
2022/03/23 08:13:12;;;;;;;;;;;;;13.70;98840.40;;;;111047;1247;41314;-67
2022/03/23 08:15:41;;;;;;;21.20;8.90;;;;;13.80;98837.60;;;;111074;1247;41259;-67
2022/03/23 08:18:14;;;;;;;17.90;6.80;;;;;13.90;98835.80;;;;110825;1248;41633;-69
2022/03/23 08:20:43;;;;;;;15.50;7.80;;;;;14.10;98834.60;;;;111043;1246;41153;-69
2022/03/23 08:23:15;;;;;;;16.90;7.20;;;;;14.30;98831.20;;;;111057;1247;41139;-67
2022/03/23 08:25:45;;;;;;;20.80;8.10;;;;;14.50;98833.40;;;;111267;1247;41154;-68
2022/03/23 08:28:14;;;;;;;25.30;8.50;;;;;14.58;98829.00;;;;111018;1247;41344;-66
2022/03/23 08:30:44;;;;;;;17.30;7.00;;;;;14.68;98828.40;;;;111020;1249;41265;-69
2022/03/23 08:33:14;;;;;;;19.30;8.40;;;;;14.90;98824.00;;;;111213;1247;41406;-67
2022/03/23 08:35:42;;;;;;;16.50;8.40;;;;;15.10;98820.40;;;;111281;1247;42135;-68
2022/03/23 08:38:12;;;;;;;18.10;7.30;;;;;15.20;98819.80;;;;111011;1247;41125;-67
2022/03/23 08:40:41;;;;;;;17.60;8.10;;;;;15.40;98816.00;;;;110965;1247;41351;-66
2022/03/23 08:43:11;;;;;;;17.70;7.50;;;;;15.68;98812.00;;;;111253;1247;41163;-69
2022/03/23 08:45:40;;;;;;;17.00;6.80;;;;;15.86;98811.00;;;;111301;1247;41152;-71
2022/03/23 08:48:10;;;;;;;19.70;7.80;;;;;16.22;98808.80;;;;111199;1247;41605;-68
2022/03/23 08:50:40;;;;;;;21.10;8.70;;;;;16.70;98806.80;;;;110964;1247;41016;-67
2022/03/23 08:53:09;;;;;;;18.60;7.40;;;;;17.18;98801.20;;;;111226;1246;41133;-69
2022/03/23 08:55:38;;;;;;;15.70;7.40;;;;;17.56;98808.20;;;;111314;1245;41251;-66
2022/03/23 08:58:08;;;;;;;18.70;7.60;;;;;17.88;98798.60;;;;111214;1248;41184;-64
2022/03/23 09:00:37;;;;;;;17.90;7.60;;;;;18.28;98793.80;;;;111101;1248;41248;-66
2022/03/23 09:03:07;;;;;;;16.20;6.80;;;;;19.20;98785.40;;;;111097;1247;42483;-67
2022/03/23 09:05:37;;;;;;;16.00;8.00;;;;;20.58;98775.20;;;;110872;1249;41144;-67
2022/03/23 09:08:13;;;;;;;18.20;6.60;;;;;22.30;98768.60;;;;111042;1247;41703;-67
2022/03/23 09:10:52;;;;;;;15.10;6.40;;;;;23.38;98761.20;;;;111105;1247;41180;-67
2022/03/23 09:13:25;;;;;;;16.30;6.30;;;;;24.54;98758.80;;;;111113;1247;41606;-68
2022/03/23 09:15:55;;;;;;;16.90;5.70;;;;;24.80;98754.80;;;;110993;1250;41628;-68
2022/03/23 09:18:28;;;;;;;12.70;5.50;;;;;26.04;98752.80;;;;110934;1249;41241;-66
2022/03/23 09:20:58;;;;;;;13.00;5.20;;;;;27.28;98746.40;;;;111270;1248;41142;-65
2022/03/23 09:23:32;;;;;;;12.10;4.70;;;;;28.30;98744.60;;;;111067;1247;41606;-66
2022/03/23 09:26:01;;;;;;;14.00;4.70;;;;;28.72;98732.60;;;;110796;1250;41201;-65
2022/03/23 09:28:31;;;;;;;10.20;4.70;;;;;28.70;98729.80;;;;110916;1248;41157;-66
2022/03/23 09:31:00;;;;;;;15.80;4.70;;;;;28.22;98726.40;;;;110817;1250;41210;-68
2022/03/23 09:33:30;;;;;;;11.00;4.50;;;;;27.60;98728.80;;;;111057;1248;41924;-67
2022/03/23 09:35:59;;;;;;;16.20;5.50;;;;;28.00;98727.40;;;;110731;1250;41437;-68
2022/03/23 09:38:29;;;;;;;12.90;4.70;;;;;28.54;98728.40;;;;111136;1247;42348;-67
2022/03/23 09:40:59;;;;;;;;;;;;;28.54;98725.20;;;;110890;1247;41145;-69
2022/03/23 09:43:28;;;;;;;13.00;5.30;;;;;29.68;98719.00;;;;111141;1247;41325;-66
2022/03/23 09:45:57;;;;;;;11.30;4.80;;;;;30.00;98711.20;;;;111027;1247;41960;-66
2022/03/23 09:48:31;;;;;;;12.10;5.60;;;;;30.78;98703.20;;;;111230;1247;41619;-65
2022/03/23 09:51:02;;;;;;;13.00;4.90;;;;;30.26;98707.00;;;;111263;1247;41200;-66
2022/03/23 09:53:33;;;;;;;12.60;5.10;;;;;30.00;98700.80;;;;111104;1248;41156;-65
2022/03/23 09:56:03;;;;;;;10.90;5.00;;;;;30.50;98699.80;;;;111061;1247;41245;-66
2022/03/23 09:58:31;;;;;;;12.70;5.20;;;;;30.34;98694.80;;;;111226;1247;42890;-65
2022/03/23 10:01:01;;;;;;;9.20;3.80;;;;;29.00;98697.40;;;;111065;1247;41141;-66
2022/03/23 10:04:20;;;;;;;13.20;4.90;;;;;29.94;98691.00;;;;111039;1248;41158;-66
2022/03/23 10:07:27;;;;;;;10.10;4.50;;;;;31.34;98686.20;;;;111099;1247;41226;-65
2022/03/23 10:10:15;;;;;;;14.00;4.80;;;;;32.60;98683.00;;;;111244;1247;41171;-68
2022/03/23 10:13:18;;;;;;;10.00;4.30;;;;;32.92;98678.40;;;;111117;1247;41343;-64
2022/03/23 10:16:06;;;;;;;11.20;4.60;;;;;32.60;98668.80;;;;111163;1247;42540;-65
2022/03/23 10:18:49;;;;;;;12.10;4.90;;;;;33.40;98664.40;;;;111117;1248;41890;-66
2022/03/23 10:21:26;;;;;;;13.40;4.90;;;;;33.92;98659.40;;;;111109;1247;41149;-66
2022/03/23 10:23:59;;;;;;;12.60;4.80;;;;;33.86;98657.20;;;;111057;1249;41157;-66
2022/03/23 10:26:31;;;;;;;11.30;4.70;;;;;33.96;98658.80;;;;111152;1247;41957;-67
2022/03/23 10:29:00;;;;;;;11.30;4.50;;;;;33.52;98653.00;;;;110941;1247;41023;-68
2022/03/23 10:31:29;;;;;;;11.20;4.90;;;;;33.50;98650.00;;;;111176;1248;41151;-66
2022/03/23 10:34:07;;;;;;;10.40;4.50;;;;;34.04;98644.80;;;;111134;1246;41648;-69
2022/03/23 10:36:39;;;;;;;11.30;3.70;;;;;34.70;98639.80;;;;111074;1247;41564;-67
2022/03/23 10:39:13;;;;;;;9.10;4.10;;;;;36.22;98635.80;;;;111112;1247;41599;-69
2022/03/23 10:41:42;;;;;;;11.50;3.90;;;;;37.12;98631.40;;;;111149;1248;41126;-70
2022/03/23 10:44:18;;;;;;;11.10;4.20;;;;;37.38;98630.00;;;;111023;1248;42028;-70
2022/03/23 10:46:47;;;;;;;14.90;4.40;;;;;37.66;98601.40;;;;111029;1249;42378;-71
2022/03/23 10:49:17;;;;;;;9.60;3.70;;;;;37.72;98621.00;;;;111267;1246;41332;-71
2022/03/23 10:51:46;;;;;;;10.40;3.90;;;;;38.66;98617.60;;;;111149;1248;41362;-67
2022/03/23 10:54:19;;;;;;;9.30;3.80;;;;;39.32;98608.80;;;;111177;1247;41164;-65
2022/03/23 10:56:48;;;;;;;9.80;3.50;;;;;39.66;98608.60;;;;110900;1246;41265;-66
2022/03/23 10:59:22;;;;;;;8.50;3.60;;;;;39.98;98598.60;;;;111166;1247;41253;-70
2022/03/23 11:02:01;;;;;;;8.40;3.50;;;;;40.56;98600.40;;;;111219;1247;41150;-69
2022/03/23 11:04:53;;;;;;;9.60;3.30;;;;;41.34;98595.40;;;;111233;1247;41123;-68
2022/03/23 11:07:31;;;;;;;8.10;3.10;;;;;41.76;98584.80;;;;111239;1247;41853;-65
2022/03/23 11:15:49;;;;;;;9.50;3.30;;;;;43.80;98567.40;;;;111201;1247;42297;-70
2022/03/23 11:18:20;;;;;;;9.30;3.50;;;;;44.02;98562.20;;;;111183;1248;41360;-69
2022/03/23 11:20:52;;;;;;;8.20;3.20;;;;;44.40;98567.80;;;;111211;1247;41155;-70
2022/03/23 11:23:26;;;;;;;10.70;4.20;;;;;44.70;98558.60;;;;110787;1250;41133;-69
2022/03/23 11:26:02;;;;;;;8.90;3.40;;;;;44.66;98555.80;;;;111241;1247;41183;-69
2022/03/23 11:28:40;;;;;;;9.90;3.60;;;;;44.04;98551.40;;;;111035;1249;42370;-65
2022/03/23 11:31:10;;;;;;;11.40;3.90;;;;;44.02;98549.40;;;;111126;1248;41243;-69
2022/03/23 11:33:42;;;;;;;10.40;3.80;;;;;43.58;98547.40;;;;110930;1247;41161;-67
2022/03/23 11:36:12;;;;;;;9.10;3.60;;;;;43.04;98544.60;;;;111182;1247;41379;-66
2022/03/23 11:38:40;;;;;;;10.00;3.80;;;;;42.58;98542.80;;;;111080;1247;41308;-65
2022/03/23 11:41:10;;;;;;;11.70;4.00;;;;;42.28;98538.60;;;;111095;1250;42318;-66
2022/03/23 11:43:39;;;;;;;9.30;3.60;;;;;41.02;98537.40;;;;111001;1250;41150;-66
2022/03/23 11:46:21;;;;;;;9.50;4.10;;;;;40.16;98528.80;;;;110937;1247;41953;-66
2022/03/23 11:49:02;;;;;;;10.90;3.70;;;;;38.28;98525.40;;;;111193;1247;41142;-66
2022/03/23 11:51:59;;;;;;;9.40;3.90;;;;;36.10;98522.80;;;;111130;1248;41175;-66
2022/03/23 11:55:36;;;;;;;11.30;3.80;;;;;36.44;98514.00;;;;111062;1249;41163;-67
2022/03/23 11:57:20;;;;;;;9.60;3.90;;;;;36.30;98519.40;;;;111189;1247;41143;-66
2022/03/23 11:59:49;;;;;;;9.90;3.60;;;;;36.26;98517.00;;;;111226;1247;41801;-66
2022/03/23 12:02:18;;;;;;;11.30;4.00;;;;;35.90;98516.40;;;;111203;1247;41743;-65
2022/03/23 12:04:47;;;;;;;;;;;;;35.90;98517.80;;;;111178;1247;41155;-66
2022/03/23 12:07:16;;;;;;;9.50;3.80;;;;;35.94;98510.00;;;;111046;1250;41191;-66
2022/03/23 12:09:45;;;;;;;8.60;3.70;;;;;35.24;98500.20;;;;111200;1247;42029;-65
2022/03/23 12:12:34;;;;;;;8.80;3.50;;;;;34.66;98501.60;;;;111082;1247;41157;-67
2022/03/23 12:15:18;;;;;;;9.10;3.70;;;;;34.34;98496.20;;;;111109;1249;41122;-71
2022/03/23 12:17:56;;;;;;;11.10;4.30;;;;;34.26;98491.00;;;;111029;1250;41586;-70
2022/03/23 12:20:33;;;;;;;9.20;3.90;;;;;32.30;98490.60;;;;111086;1247;41169;-69
2022/03/23 12:23:15;;;;;;;11.00;4.30;;;;;30.86;98484.80;;;;110950;1248;41937;-70
2022/03/23 12:26:06;;;;;;;12.80;4.00;;;;;29.94;98488.60;;;;111282;1247;40915;-68
2022/03/23 12:28:43;;;;;;;10.90;4.00;;;;;29.34;98484.40;;;;110886;1249;41251;-69
2022/03/23 12:31:15;;;;;;;13.10;4.20;;;;;28.34;98481.40;;;;110989;1247;41153;-73
2022/03/23 12:34:06;;;;;;;11.80;3.80;;;;;27.74;98481.60;;;;110963;1250;42844;-71
2022/03/23 12:36:56;;;;;;;8.00;3.30;;;;;27.80;98480.60;;;;111035;1249;42386;-67
2022/03/23 12:39:27;;;;;;;11.00;4.20;;;;;28.00;98481.40;;;;111155;1248;41135;-66
2022/03/23 12:42:13;;;;;;;12.10;4.30;;;;;27.20;98471.20;;;;111208;1247;41186;-68
2022/03/23 12:44:45;;;;;;;10.30;4.00;;;;;26.76;98476.20;;;;110829;1250;41634;-65
2022/03/23 12:47:19;;;;;;;10.50;4.20;;;;;26.54;98472.20;;;;110990;1248;41256;-66